Main page
METAR-TAF:

METAR-TAF

Airports :

Mexicali, Mexico

Mexicali International Airport

latitude: 32-37-50N, longitude: 115-14-30W, elevation: 22 m

Current weather observation

The report was made 44 minutes ago, at 16:41 UTC
Wind 5 kt from the South/Southeast
Temperature 33°C
Humidity 53%
Pressure 1011 hPa
Visibility: 16.1 km
Scattered clouds at a height of 10000 ft

METAR: MMML 261641Z 16005KT 10SM SCT100 33/22 A2986 RMK 8/030 HZ N NE E FULYR E

Time: 12:25 (17:25 UTC)

Forecast

The report was made 12 hours and 30 minutes ago, at 04:55 UTC
Forecast valid from 26 at 06 UTC to 27 at 06 UTC
Wind 5 kt from the South/Southeast
Visibility: 10 km
Clear sky
From 26 at 1800 UTC
Wind 10 kt from the Southeast
Visibility: 10 km
Clear sky
From 27 at 0500 UTC
Wind 5 kt from the Southeast
Visibility: 10 km
Clear sky

TAF: MMML 260455Z 2606/2706 15005KT P6SM SKC FM261800 13010KT P6SM SKC FM270500 13005KT P6SM SKC

Weather observations and forecasts of more than 4000 airports (METAR and TAF reports).

The available stations are represented by yellow and red dots on the map.

Hover mouse over dot to see the name of the station.

Then click to see weather observations and forecasts.

To change the map : click on the green buttons with a black cross to zoom in, on the green button with a dash to zoom out, or on the green arrows for adjacent maps.


METAR-TAF: